Brookley Field, Alabama
Current Conditions -  °F | °C
As of 6:53 PM on Monday 26 Jan 2015 (Local Time) from KBFM Reporting Station
Clear Clear  
Wind Chill:   Ceiling: Unl
Heat Index:   Visibility: 10mi
Dew Point:   Wind: 3mph
Humidity: 66%   Direction: 250°WSW
Pressure: 30.08"   Gusts: NA
Location:  30.641°N, 88.065°W
Report Text: KBFM 270053Z 25003KT 10SM CLR 08/02 A3008 RMK AO2 SLP185 T00780017
Loading
Personal Weather Stations






























Interactive Weather Map New forecast layout! Learn more

10-Day Weather Forecast

Advertisements
Track Severe Weather on mobile